Airfield :
LOGIN :

Register | Disclaimer

   EN    FR    IT 

 










Legend :    VFR   Marginal VFR   IFR   Intensive IFR   Very Intensive IFR
Visi :
Ceiling :
>= 8 km
>= 3000ft
5 to 8 km
1000 to 3000 ft
1500m to 5 km
500 to 1000 ft
800 to 1500m
200 to 500 ft
< 800m
< 200 ft
Symbols :   Thunderstorms  Fog  Heavy snow  Heavy precipitations  Wind > 20 kt
SIGMETs :     Misc.  Thunderstorms  Icing  Turbulence  Mountain Waves  Volcanic Ashes






- Airport Elevation : 257 ft
- IATA code : MAN


EGCC - Manchester

CURRENT METAR :
  • 021150Z AUTO 25012KT 9999 FEW039 BKN046 17/09 Q1015 NOSIG

EXPIRED METARs :
  • 021120Z AUTO 24010KT 9999 FEW040 18/10 Q1015
  • 021050Z AUTO 25014KT 9999 FEW039 18/09 Q1015 NOSIG
  • 021020Z AUTO 23009KT 180V270 9999 FEW028 SCT032 17/10 Q1015
  • 020950Z AUTO 22010KT 180V240 9999 SCT025 17/11 Q1015
  • 020920Z 21007KT 190V260 9999 SCT018 16/12 Q1015 NOSIG

TAF TAF EGCC
Valid from the 02 at 12:00 until the 03 at 18:00 UTC


021054Z 0212/0318 20008KT 9999 FEW040
BECMG 0212/0215 29015KT
PROB30
TEMPO 0212/0218 7000 SHRA
BECMG 0219/0222 19005KT
BECMG 0306/0309 27010KT
TEMPO 0306/0312 6000 RA SHRA BKN010
PROB30
TEMPO 0306/0310 4000 +SHRA BKN008
PROB30
TEMPO 0312/0316 7000 SHRA
ATIS : +44 161 499 2324



MET'MAP, your aeronautical weather chart ! - Copyright ORBIFLY December 2007 - Disclaimer

ORBIFLY MET'MAP TEAM :

Programming & Development : Alexandra Zaïnal
Original concept : Baudouin d'Aumeries
Technical & hardware support : Manuel Goepfert
Assistance : Marc-Olivier Méhu




SOURCES & CREDITS :

   NOAA